sensor_id;sensor_type;location;lat;lon;timestamp;temperature;humidity
40996;DHT22;26723;57.478;12.066;2023-04-03T00:01:34;-0.10;99.90
40996;DHT22;26723;57.478;12.066;2023-04-03T00:04:45;-0.30;99.90
40996;DHT22;26723;57.478;12.066;2023-04-03T00:07:53;-0.50;99.90
40996;DHT22;26723;57.478;12.066;2023-04-03T00:11:02;-0.30;99.90
40996;DHT22;26723;57.478;12.066;2023-04-03T00:14:12;-0.30;99.90
40996;DHT22;26723;57.478;12.066;2023-04-03T00:17:20;-0.40;99.90
40996;DHT22;26723;57.478;12.066;2023-04-03T00:20:29;-0.30;99.90
40996;DHT22;26723;57.478;12.066;2023-04-03T00:23:37;-0.30;99.90
40996;DHT22;26723;57.478;12.066;2023-04-03T00:26:46;-0.30;99.90
40996;DHT22;26723;57.478;12.066;2023-04-03T00:29:56;-0.30;99.90
40996;DHT22;26723;57.478;12.066;2023-04-03T00:33:05;-0.30;99.90
40996;DHT22;26723;57.478;12.066;2023-04-03T00:36:13;-0.40;99.90
40996;DHT22;26723;57.478;12.066;2023-04-03T00:39:22;-0.40;99.90
40996;DHT22;26723;57.478;12.066;2023-04-03T00:42:30;-0.40;99.90
40996;DHT22;26723;57.478;12.066;2023-04-03T00:45:41;-0.40;99.90
40996;DHT22;26723;57.478;12.066;2023-04-03T00:48:50;-0.50;99.90
40996;DHT22;26723;57.478;12.066;2023-04-03T00:51:59;-0.40;99.90
40996;DHT22;26723;57.478;12.066;2023-04-03T00:55:08;-0.50;99.90
40996;DHT22;26723;57.478;12.066;2023-04-03T00:58:18;-0.50;99.90
40996;DHT22;26723;57.478;12.066;2023-04-03T01:01:29;-0.50;99.90
40996;DHT22;26723;57.478;12.066;2023-04-03T01:04:40;-0.50;99.90
40996;DHT22;26723;57.478;12.066;2023-04-03T01:07:49;-0.70;99.90
40996;DHT22;26723;57.478;12.066;2023-04-03T01:10:59;-0.80;99.90
40996;DHT22;26723;57.478;12.066;2023-04-03T01:14:07;-0.80;99.90
40996;DHT22;26723;57.478;12.066;2023-04-03T01:17:30;-0.70;99.90
40996;DHT22;26723;57.478;12.066;2023-04-03T01:21:07;-0.70;99.90
40996;DHT22;26723;57.478;12.066;2023-04-03T01:24:27;-0.70;99.90
40996;DHT22;26723;57.478;12.066;2023-04-03T01:27:40;-0.70;99.90
40996;DHT22;26723;57.478;12.066;2023-04-03T01:30:51;-0.70;99.90
40996;DHT22;26723;57.478;12.066;2023-04-03T01:34:03;-0.60;99.90
40996;DHT22;26723;57.478;12.066;2023-04-03T01:37:12;-0.50;99.90
40996;DHT22;26723;57.478;12.066;2023-04-03T01:40:20;-0.50;99.90
40996;DHT22;26723;57.478;12.066;2023-04-03T01:43:28;-0.60;99.90
40996;DHT22;26723;57.478;12.066;2023-04-03T01:46:37;-0.60;99.90
40996;DHT22;26723;57.478;12.066;2023-04-03T01:49:47;-0.60;99.90
40996;DHT22;26723;57.478;12.066;2023-04-03T01:52:55;-0.60;99.90
40996;DHT22;26723;57.478;12.066;2023-04-03T01:56:04;-0.60;99.90
40996;DHT22;26723;57.478;12.066;2023-04-03T01:59:13;-0.70;99.90
40996;DHT22;26723;57.478;12.066;2023-04-03T02:02:24;-0.70;99.90
40996;DHT22;26723;57.478;12.066;2023-04-03T02:05:34;-0.80;99.90
40996;DHT22;26723;57.478;12.066;2023-04-03T02:08:42;-0.80;99.90
40996;DHT22;26723;57.478;12.066;2023-04-03T02:11:50;-0.80;99.90
40996;DHT22;26723;57.478;12.066;2023-04-03T02:14:59;-0.80;99.90
40996;DHT22;26723;57.478;12.066;2023-04-03T02:18:08;-0.90;99.90
40996;DHT22;26723;57.478;12.066;2023-04-03T02:21:18;-1.00;99.90
40996;DHT22;26723;57.478;12.066;2023-04-03T02:24:27;-1.00;99.90
40996;DHT22;26723;57.478;12.066;2023-04-03T02:27:36;-1.00;99.90
40996;DHT22;26723;57.478;12.066;2023-04-03T02:30:44;-1.00;99.90
40996;DHT22;26723;57.478;12.066;2023-04-03T02:33:53;-1.00;99.90
40996;DHT22;26723;57.478;12.066;2023-04-03T02:37:03;-1.10;99.90
40996;DHT22;26723;57.478;12.066;2023-04-03T02:40:12;-1.10;99.90
40996;DHT22;26723;57.478;12.066;2023-04-03T02:43:20;-1.10;99.90
40996;DHT22;26723;57.478;12.066;2023-04-03T02:46:29;-1.10;99.90
40996;DHT22;26723;57.478;12.066;2023-04-03T02:49:37;-1.10;99.90
40996;DHT22;26723;57.478;12.066;2023-04-03T02:52:47;-1.10;99.90
40996;DHT22;26723;57.478;12.066;2023-04-03T02:55:56;-1.10;99.90
40996;DHT22;26723;57.478;12.066;2023-04-03T02:59:05;-1.20;99.90
40996;DHT22;26723;57.478;12.066;2023-04-03T03:02:16;-1.20;99.90
40996;DHT22;26723;57.478;12.066;2023-04-03T03:05:24;-1.20;99.90
40996;DHT22;26723;57.478;12.066;2023-04-03T03:08:34;-1.20;99.90
40996;DHT22;26723;57.478;12.066;2023-04-03T03:11:43;-1.20;99.90
40996;DHT22;26723;57.478;12.066;2023-04-03T03:14:51;-1.30;99.90
40996;DHT22;26723;57.478;12.066;2023-04-03T03:18:00;-1.30;99.90
40996;DHT22;26723;57.478;12.066;2023-04-03T03:21:09;-1.30;99.90
40996;DHT22;26723;57.478;12.066;2023-04-03T03:24:19;-1.20;99.90
40996;DHT22;26723;57.478;12.066;2023-04-03T03:27:28;-1.30;99.90
40996;DHT22;26723;57.478;12.066;2023-04-03T03:30:37;-1.20;99.90
40996;DHT22;26723;57.478;12.066;2023-04-03T03:33:45;-1.20;99.90
40996;DHT22;26723;57.478;12.066;2023-04-03T03:36:54;-1.20;99.90
40996;DHT22;26723;57.478;12.066;2023-04-03T03:40:05;-1.10;99.90
40996;DHT22;26723;57.478;12.066;2023-04-03T03:43:14;-1.10;99.90
40996;DHT22;26723;57.478;12.066;2023-04-03T03:46:23;-1.30;99.90
40996;DHT22;26723;57.478;12.066;2023-04-03T03:49:33;-1.30;99.90
40996;DHT22;26723;57.478;12.066;2023-04-03T03:52:42;-1.20;99.90
40996;DHT22;26723;57.478;12.066;2023-04-03T03:55:52;-1.30;99.90
40996;DHT22;26723;57.478;12.066;2023-04-03T03:59:03;-1.30;99.90
40996;DHT22;26723;57.478;12.066;2023-04-03T04:02:12;-1.20;99.90
40996;DHT22;26723;57.478;12.066;2023-04-03T04:05:21;-1.10;99.90
40996;DHT22;26723;57.478;12.066;2023-04-03T04:08:32;-1.10;99.90
40996;DHT22;26723;57.478;12.066;2023-04-03T04:11:42;-1.30;99.90
40996;DHT22;26723;57.478;12.066;2023-04-03T04:14:51;-1.30;99.90
40996;DHT22;26723;57.478;12.066;2023-04-03T04:18:00;-1.40;99.90
40996;DHT22;26723;57.478;12.066;2023-04-03T04:21:10;-1.40;99.90
40996;DHT22;26723;57.478;12.066;2023-04-03T04:24:19;-1.40;99.90
40996;DHT22;26723;57.478;12.066;2023-04-03T04:27:30;-1.60;99.90
40996;DHT22;26723;57.478;12.066;2023-04-03T04:30:39;-1.50;99.90
40996;DHT22;26723;57.478;12.066;2023-04-03T04:33:48;-1.60;99.90
40996;DHT22;26723;57.478;12.066;2023-04-03T04:36:57;-1.60;99.90
40996;DHT22;26723;57.478;12.066;2023-04-03T04:40:07;-1.50;99.90
40996;DHT22;26723;57.478;12.066;2023-04-03T04:43:17;-1.50;99.90
40996;DHT22;26723;57.478;12.066;2023-04-03T04:46:29;-1.50;99.90
40996;DHT22;26723;57.478;12.066;2023-04-03T04:49:39;-1.80;99.90
40996;DHT22;26723;57.478;12.066;2023-04-03T04:52:48;-1.90;99.90
40996;DHT22;26723;57.478;12.066;2023-04-03T04:55:56;-1.90;99.90
40996;DHT22;26723;57.478;12.066;2023-04-03T04:59:06;-2.00;99.90
40996;DHT22;26723;57.478;12.066;2023-04-03T05:02:15;-2.00;99.90
40996;DHT22;26723;57.478;12.066;2023-04-03T05:05:24;-2.00;99.90
40996;DHT22;26723;57.478;12.066;2023-04-03T05:08:33;-2.00;99.90
40996;DHT22;26723;57.478;12.066;2023-04-03T05:11:42;-2.00;99.90
40996;DHT22;26723;57.478;12.066;2023-04-03T05:14:54;-2.10;99.90
40996;DHT22;26723;57.478;12.066;2023-04-03T05:18:05;-1.90;99.90
40996;DHT22;26723;57.478;12.066;2023-04-03T05:21:14;-1.70;99.90
40996;DHT22;26723;57.478;12.066;2023-04-03T05:24:26;-1.50;99.90
40996;DHT22;26723;57.478;12.066;2023-04-03T05:27:35;-1.40;99.90
40996;DHT22;26723;57.478;12.066;2023-04-03T05:30:45;-1.40;99.90
40996;DHT22;26723;57.478;12.066;2023-04-03T05:33:53;-1.60;99.90
40996;DHT22;26723;57.478;12.066;2023-04-03T05:37:02;-1.60;99.90
40996;DHT22;26723;57.478;12.066;2023-04-03T05:40:12;-1.70;99.90
40996;DHT22;26723;57.478;12.066;2023-04-03T05:43:26;-1.60;99.90
40996;DHT22;26723;57.478;12.066;2023-04-03T05:46:37;-1.50;99.90
40996;DHT22;26723;57.478;12.066;2023-04-03T05:49:48;-1.40;99.90
40996;DHT22;26723;57.478;12.066;2023-04-03T05:52:57;-1.20;99.90
40996;DHT22;26723;57.478;12.066;2023-04-03T05:56:09;-1.00;99.90
40996;DHT22;26723;57.478;12.066;2023-04-03T05:59:20;-0.90;99.90
40996;DHT22;26723;57.478;12.066;2023-04-03T06:02:33;-0.80;99.90
40996;DHT22;26723;57.478;12.066;2023-04-03T06:05:41;-0.60;99.90
40996;DHT22;26723;57.478;12.066;2023-04-03T06:08:50;-0.20;99.90
40996;DHT22;26723;57.478;12.066;2023-04-03T06:11:59;0.30;99.90
40996;DHT22;26723;57.478;12.066;2023-04-03T06:15:09;0.80;99.90
40996;DHT22;26723;57.478;12.066;2023-04-03T06:18:21;1.50;99.90
40996;DHT22;26723;57.478;12.066;2023-04-03T06:21:30;5.10;99.90
40996;DHT22;26723;57.478;12.066;2023-04-03T06:24:38;8.40;99.90
40996;DHT22;26723;57.478;12.066;2023-04-03T06:27:47;10.40;99.90
40996;DHT22;26723;57.478;12.066;2023-04-03T06:30:55;11.90;99.90
40996;DHT22;26723;57.478;12.066;2023-04-03T06:34:05;12.70;99.90
40996;DHT22;26723;57.478;12.066;2023-04-03T06:37:22;13.20;99.90
40996;DHT22;26723;57.478;12.066;2023-04-03T06:40:32;13.90;96.50
40996;DHT22;26723;57.478;12.066;2023-04-03T06:43:41;14.60;94.60
40996;DHT22;26723;57.478;12.066;2023-04-03T06:46:50;15.10;92.70
40996;DHT22;26723;57.478;12.066;2023-04-03T06:50:00;15.50;90.40
40996;DHT22;26723;57.478;12.066;2023-04-03T06:53:08;16.20;87.50
40996;DHT22;26723;57.478;12.066;2023-04-03T06:56:18;16.50;82.30
40996;DHT22;26723;57.478;12.066;2023-04-03T06:59:27;16.50;76.30
40996;DHT22;26723;57.478;12.066;2023-04-03T07:02:36;16.50;77.90
40996;DHT22;26723;57.478;12.066;2023-04-03T07:05:46;17.00;75.30
40996;DHT22;26723;57.478;12.066;2023-04-03T07:08:54;17.00;73.70
40996;DHT22;26723;57.478;12.066;2023-04-03T07:12:03;16.80;70.20
40996;DHT22;26723;57.478;12.066;2023-04-03T07:15:12;16.00;68.60
40996;DHT22;26723;57.478;12.066;2023-04-03T07:18:21;16.50;70.50
40996;DHT22;26723;57.478;12.066;2023-04-03T07:21:31;17.30;70.30
40996;DHT22;26723;57.478;12.066;2023-04-03T07:24:40;17.80;66.10
40996;DHT22;26723;57.478;12.066;2023-04-03T07:27:49;18.20;65.20
40996;DHT22;26723;57.478;12.066;2023-04-03T07:31:00;17.70;63.50
40996;DHT22;26723;57.478;12.066;2023-04-03T07:34:09;17.70;61.70
40996;DHT22;26723;57.478;12.066;2023-04-03T07:37:19;17.60;61.40
40996;DHT22;26723;57.478;12.066;2023-04-03T07:40:27;18.10;62.00
40996;DHT22;26723;57.478;12.066;2023-04-03T07:43:35;18.10;61.80
40996;DHT22;26723;57.478;12.066;2023-04-03T07:46:44;17.70;59.40
40996;DHT22;26723;57.478;12.066;2023-04-03T07:49:53;19.10;59.20
40996;DHT22;26723;57.478;12.066;2023-04-03T07:53:05;19.40;58.40
40996;DHT22;26723;57.478;12.066;2023-04-03T07:56:14;19.80;58.50
40996;DHT22;26723;57.478;12.066;2023-04-03T07:59:23;20.70;56.80
40996;DHT22;26723;57.478;12.066;2023-04-03T08:02:31;19.00;55.30
40996;DHT22;26723;57.478;12.066;2023-04-03T08:05:42;19.40;55.80
40996;DHT22;26723;57.478;12.066;2023-04-03T08:08:51;19.20;57.60
40996;DHT22;26723;57.478;12.066;2023-04-03T08:12:00;17.50;60.10
40996;DHT22;26723;57.478;12.066;2023-04-03T08:15:09;15.80;61.10
40996;DHT22;26723;57.478;12.066;2023-04-03T08:18:18;15.90;61.00
40996;DHT22;26723;57.478;12.066;2023-04-03T08:21:28;16.30;62.00
40996;DHT22;26723;57.478;12.066;2023-04-03T08:24:38;17.00;63.80
40996;DHT22;26723;57.478;12.066;2023-04-03T08:28:04;16.40;62.80
40996;DHT22;26723;57.478;12.066;2023-04-03T08:31:15;16.40;63.70
40996;DHT22;26723;57.478;12.066;2023-04-03T08:34:25;16.50;62.10
40996;DHT22;26723;57.478;12.066;2023-04-03T08:37:35;15.30;63.20
40996;DHT22;26723;57.478;12.066;2023-04-03T08:40:45;16.00;62.90
40996;DHT22;26723;57.478;12.066;2023-04-03T08:44:01;15.80;64.40
40996;DHT22;26723;57.478;12.066;2023-04-03T08:47:17;15.90;63.70
40996;DHT22;26723;57.478;12.066;2023-04-03T08:50:30;14.90;63.60
40996;DHT22;26723;57.478;12.066;2023-04-03T08:53:41;16.20;63.00
40996;DHT22;26723;57.478;12.066;2023-04-03T08:56:52;16.20;63.30
40996;DHT22;26723;57.478;12.066;2023-04-03T09:00:04;16.40;61.40
40996;DHT22;26723;57.478;12.066;2023-04-03T09:03:16;16.20;62.20
40996;DHT22;26723;57.478;12.066;2023-04-03T09:06:27;15.00;61.00
40996;DHT22;26723;57.478;12.066;2023-04-03T09:09:41;14.40;63.00
40996;DHT22;26723;57.478;12.066;2023-04-03T09:12:55;15.10;64.00
40996;DHT22;26723;57.478;12.066;2023-04-03T09:16:16;14.90;62.00
40996;DHT22;26723;57.478;12.066;2023-04-03T09:19:34;14.80;64.30
40996;DHT22;26723;57.478;12.066;2023-04-03T09:22:44;15.80;64.10
40996;DHT22;26723;57.478;12.066;2023-04-03T09:26:02;15.20;62.10
40996;DHT22;26723;57.478;12.066;2023-04-03T09:29:17;15.80;65.80
40996;DHT22;26723;57.478;12.066;2023-04-03T09:32:28;16.10;59.30
40996;DHT22;26723;57.478;12.066;2023-04-03T09:35:37;16.00;60.20
40996;DHT22;26723;57.478;12.066;2023-04-03T09:39:03;16.20;61.70
40996;DHT22;26723;57.478;12.066;2023-04-03T09:42:18;16.50;62.10
40996;DHT22;26723;57.478;12.066;2023-04-03T09:45:31;16.50;61.10
40996;DHT22;26723;57.478;12.066;2023-04-03T09:48:49;16.20;64.10
40996;DHT22;26723;57.478;12.066;2023-04-03T09:52:19;16.20;62.70
40996;DHT22;26723;57.478;12.066;2023-04-03T09:55:28;15.70;61.50
40996;DHT22;26723;57.478;12.066;2023-04-03T09:58:39;15.90;62.40
40996;DHT22;26723;57.478;12.066;2023-04-03T10:02:00;15.90;62.40
40996;DHT22;26723;57.478;12.066;2023-04-03T10:05:27;15.70;62.20
40996;DHT22;26723;57.478;12.066;2023-04-03T10:08:36;15.40;61.80
40996;DHT22;26723;57.478;12.066;2023-04-03T10:12:00;15.60;65.10
40996;DHT22;26723;57.478;12.066;2023-04-03T10:15:13;15.30;67.30
40996;DHT22;26723;57.478;12.066;2023-04-03T10:18:31;14.80;66.20
40996;DHT22;26723;57.478;12.066;2023-04-03T10:21:45;14.50;69.20
40996;DHT22;26723;57.478;12.066;2023-04-03T10:25:03;14.30;69.20
40996;DHT22;26723;57.478;12.066;2023-04-03T10:28:19;14.10;69.00
40996;DHT22;26723;57.478;12.066;2023-04-03T10:31:34;13.30;70.20
40996;DHT22;26723;57.478;12.066;2023-04-03T10:34:47;13.10;70.20
40996;DHT22;26723;57.478;12.066;2023-04-03T10:38:17;13.30;71.40
40996;DHT22;26723;57.478;12.066;2023-04-03T10:41:34;13.00;72.20
40996;DHT22;26723;57.478;12.066;2023-04-03T10:45:03;12.60;71.40
40996;DHT22;26723;57.478;12.066;2023-04-03T10:48:22;12.50;73.10
40996;DHT22;26723;57.478;12.066;2023-04-03T10:51:41;12.90;73.10
40996;DHT22;26723;57.478;12.066;2023-04-03T10:54:58;13.00;71.30
40996;DHT22;26723;57.478;12.066;2023-04-03T10:58:27;12.80;72.40
40996;DHT22;26723;57.478;12.066;2023-04-03T11:01:39;12.70;72.20
40996;DHT22;26723;57.478;12.066;2023-04-03T11:04:52;12.40;71.70
40996;DHT22;26723;57.478;12.066;2023-04-03T11:08:10;12.50;73.40
40996;DHT22;26723;57.478;12.066;2023-04-03T11:11:22;12.30;73.60
40996;DHT22;26723;57.478;12.066;2023-04-03T11:14:34;12.40;74.60
40996;DHT22;26723;57.478;12.066;2023-04-03T11:17:46;12.20;76.20
40996;DHT22;26723;57.478;12.066;2023-04-03T11:21:02;12.00;74.30
40996;DHT22;26723;57.478;12.066;2023-04-03T11:24:17;12.00;74.70
40996;DHT22;26723;57.478;12.066;2023-04-03T11:27:33;11.80;76.80
40996;DHT22;26723;57.478;12.066;2023-04-03T11:30:48;12.00;76.70
40996;DHT22;26723;57.478;12.066;2023-04-03T11:34:08;11.60;75.60
40996;DHT22;26723;57.478;12.066;2023-04-03T11:37:29;11.70;78.60
40996;DHT22;26723;57.478;12.066;2023-04-03T11:40:41;11.20;79.00
40996;DHT22;26723;57.478;12.066;2023-04-03T11:43:58;10.90;81.70
40996;DHT22;26723;57.478;12.066;2023-04-03T11:47:07;10.60;82.30
40996;DHT22;26723;57.478;12.066;2023-04-03T11:50:41;10.50;82.00
40996;DHT22;26723;57.478;12.066;2023-04-03T11:53:49;10.10;84.50
40996;DHT22;26723;57.478;12.066;2023-04-03T11:56:59;9.90;84.50
40996;DHT22;26723;57.478;12.066;2023-04-03T12:00:48;9.90;84.10
40996;DHT22;26723;57.478;12.066;2023-04-03T12:04:06;9.80;85.50
40996;DHT22;26723;57.478;12.066;2023-04-03T12:07:18;10.00;83.90
40996;DHT22;26723;57.478;12.066;2023-04-03T12:10:26;9.60;83.70
40996;DHT22;26723;57.478;12.066;2023-04-03T12:13:41;9.40;85.30
40996;DHT22;26723;57.478;12.066;2023-04-03T12:16:50;9.60;83.90
40996;DHT22;26723;57.478;12.066;2023-04-03T12:20:00;9.70;85.00
40996;DHT22;26723;57.478;12.066;2023-04-03T12:23:23;9.80;85.10
40996;DHT22;26723;57.478;12.066;2023-04-03T12:26:48;9.80;84.50
40996;DHT22;26723;57.478;12.066;2023-04-03T12:30:16;9.70;85.50
40996;DHT22;26723;57.478;12.066;2023-04-03T12:33:36;9.60;86.40
40996;DHT22;26723;57.478;12.066;2023-04-03T12:36:55;9.10;87.60
40996;DHT22;26723;57.478;12.066;2023-04-03T12:40:15;9.00;88.60
40996;DHT22;26723;57.478;12.066;2023-04-03T12:43:41;9.10;89.50
40996;DHT22;26723;57.478;12.066;2023-04-03T12:46:52;9.10;88.40
40996;DHT22;26723;57.478;12.066;2023-04-03T12:50:02;9.10;86.90
40996;DHT22;26723;57.478;12.066;2023-04-03T12:53:14;9.20;88.60
40996;DHT22;26723;57.478;12.066;2023-04-03T12:56:25;9.40;88.50
40996;DHT22;26723;57.478;12.066;2023-04-03T12:59:34;9.40;88.70
40996;DHT22;26723;57.478;12.066;2023-04-03T13:02:44;9.30;88.20
40996;DHT22;26723;57.478;12.066;2023-04-03T13:05:54;9.10;90.00
40996;DHT22;26723;57.478;12.066;2023-04-03T13:09:05;9.20;90.50
40996;DHT22;26723;57.478;12.066;2023-04-03T13:12:16;9.10;88.90
40996;DHT22;26723;57.478;12.066;2023-04-03T13:15:27;9.00;89.40
40996;DHT22;26723;57.478;12.066;2023-04-03T13:18:38;8.80;90.40
40996;DHT22;26723;57.478;12.066;2023-04-03T13:21:46;8.80;90.60
40996;DHT22;26723;57.478;12.066;2023-04-03T13:24:58;8.90;91.80
40996;DHT22;26723;57.478;12.066;2023-04-03T13:28:13;8.70;92.00
40996;DHT22;26723;57.478;12.066;2023-04-03T13:31:25;8.70;92.20
40996;DHT22;26723;57.478;12.066;2023-04-03T13:34:39;8.70;92.10
40996;DHT22;26723;57.478;12.066;2023-04-03T13:37:55;8.50;92.60
40996;DHT22;26723;57.478;12.066;2023-04-03T13:41:20;8.30;93.20
40996;DHT22;26723;57.478;12.066;2023-04-03T13:44:32;8.30;93.30
40996;DHT22;26723;57.478;12.066;2023-04-03T13:47:42;8.30;93.20
40996;DHT22;26723;57.478;12.066;2023-04-03T13:50:57;8.40;92.90
40996;DHT22;26723;57.478;12.066;2023-04-03T13:54:18;8.20;92.90
40996;DHT22;26723;57.478;12.066;2023-04-03T13:57:27;8.20;93.00
40996;DHT22;26723;57.478;12.066;2023-04-03T14:00:39;8.20;93.00
40996;DHT22;26723;57.478;12.066;2023-04-03T14:03:53;8.20;93.20
40996;DHT22;26723;57.478;12.066;2023-04-03T14:07:03;8.20;93.80
40996;DHT22;26723;57.478;12.066;2023-04-03T14:10:11;8.10;93.40
40996;DHT22;26723;57.478;12.066;2023-04-03T14:13:20;8.10;93.70
40996;DHT22;26723;57.478;12.066;2023-04-03T14:16:32;8.20;94.10
40996;DHT22;26723;57.478;12.066;2023-04-03T14:19:41;8.30;94.40
40996;DHT22;26723;57.478;12.066;2023-04-03T14:22:52;8.00;94.80
40996;DHT22;26723;57.478;12.066;2023-04-03T14:26:00;8.00;95.40
40996;DHT22;26723;57.478;12.066;2023-04-03T14:29:10;8.10;95.80
40996;DHT22;26723;57.478;12.066;2023-04-03T14:32:20;8.10;96.40
40996;DHT22;26723;57.478;12.066;2023-04-03T14:35:29;8.10;97.20
40996;DHT22;26723;57.478;12.066;2023-04-03T14:38:40;8.10;96.70
40996;DHT22;26723;57.478;12.066;2023-04-03T14:41:49;8.10;97.60
40996;DHT22;26723;57.478;12.066;2023-04-03T14:44:57;8.20;97.90
40996;DHT22;26723;57.478;12.066;2023-04-03T14:48:09;8.00;98.70
40996;DHT22;26723;57.478;12.066;2023-04-03T14:51:21;8.00;98.70
40996;DHT22;26723;57.478;12.066;2023-04-03T14:54:31;7.90;99.40
40996;DHT22;26723;57.478;12.066;2023-04-03T14:57:40;7.90;99.50
40996;DHT22;26723;57.478;12.066;2023-04-03T15:00:48;7.90;99.90
40996;DHT22;26723;57.478;12.066;2023-04-03T15:03:57;7.90;99.90
40996;DHT22;26723;57.478;12.066;2023-04-03T15:07:08;7.80;99.90
40996;DHT22;26723;57.478;12.066;2023-04-03T15:10:20;7.90;99.90
40996;DHT22;26723;57.478;12.066;2023-04-03T15:13:29;8.00;99.90
40996;DHT22;26723;57.478;12.066;2023-04-03T15:16:37;7.80;99.90
40996;DHT22;26723;57.478;12.066;2023-04-03T15:19:46;7.70;99.90
40996;DHT22;26723;57.478;12.066;2023-04-03T15:22:54;7.70;99.90
40996;DHT22;26723;57.478;12.066;2023-04-03T15:26:06;7.80;99.90
40996;DHT22;26723;57.478;12.066;2023-04-03T15:29:14;7.90;99.90
40996;DHT22;26723;57.478;12.066;2023-04-03T15:32:22;7.70;99.90
40996;DHT22;26723;57.478;12.066;2023-04-03T15:35:31;7.70;99.90
40996;DHT22;26723;57.478;12.066;2023-04-03T15:38:39;7.60;99.90
40996;DHT22;26723;57.478;12.066;2023-04-03T15:41:49;7.50;99.90
40996;DHT22;26723;57.478;12.066;2023-04-03T15:44:58;7.50;99.90
40996;DHT22;26723;57.478;12.066;2023-04-03T15:48:07;7.60;99.90
40996;DHT22;26723;57.478;12.066;2023-04-03T15:51:16;7.50;99.90
40996;DHT22;26723;57.478;12.066;2023-04-03T15:54:24;7.40;99.90
40996;DHT22;26723;57.478;12.066;2023-04-03T15:57:34;7.50;99.90
40996;DHT22;26723;57.478;12.066;2023-04-03T16:00:47;7.40;99.90
40996;DHT22;26723;57.478;12.066;2023-04-03T16:03:56;7.30;99.90
40996;DHT22;26723;57.478;12.066;2023-04-03T16:07:05;7.30;99.90
40996;DHT22;26723;57.478;12.066;2023-04-03T16:10:16;7.20;99.90
40996;DHT22;26723;57.478;12.066;2023-04-03T16:13:26;7.20;99.90
40996;DHT22;26723;57.478;12.066;2023-04-03T16:16:35;7.10;99.90
40996;DHT22;26723;57.478;12.066;2023-04-03T16:19:43;7.10;99.90
40996;DHT22;26723;57.478;12.066;2023-04-03T16:22:52;6.90;99.90
40996;DHT22;26723;57.478;12.066;2023-04-03T16:26:00;6.80;99.90
40996;DHT22;26723;57.478;12.066;2023-04-03T16:29:10;6.80;99.90
40996;DHT22;26723;57.478;12.066;2023-04-03T16:32:19;6.70;99.90
40996;DHT22;26723;57.478;12.066;2023-04-03T16:35:27;6.60;99.90
40996;DHT22;26723;57.478;12.066;2023-04-03T16:38:35;6.50;99.90
40996;DHT22;26723;57.478;12.066;2023-04-03T16:41:44;6.50;99.90
40996;DHT22;26723;57.478;12.066;2023-04-03T16:44:54;6.50;99.90
40996;DHT22;26723;57.478;12.066;2023-04-03T16:48:04;6.40;99.90
40996;DHT22;26723;57.478;12.066;2023-04-03T16:51:13;6.30;99.90
40996;DHT22;26723;57.478;12.066;2023-04-03T16:54:21;6.20;99.90
40996;DHT22;26723;57.478;12.066;2023-04-03T16:57:30;6.10;99.90
40996;DHT22;26723;57.478;12.066;2023-04-03T17:00:40;6.20;99.90
40996;DHT22;26723;57.478;12.066;2023-04-03T17:03:48;6.10;99.90
40996;DHT22;26723;57.478;12.066;2023-04-03T17:06:57;6.00;99.90
40996;DHT22;26723;57.478;12.066;2023-04-03T17:10:08;6.00;99.90
40996;DHT22;26723;57.478;12.066;2023-04-03T17:13:16;6.00;99.90
40996;DHT22;26723;57.478;12.066;2023-04-03T17:16:26;6.00;99.90
40996;DHT22;26723;57.478;12.066;2023-04-03T17:19:36;5.90;99.90
40996;DHT22;26723;57.478;12.066;2023-04-03T17:22:45;5.80;99.90
40996;DHT22;26723;57.478;12.066;2023-04-03T17:25:54;5.80;99.90
40996;DHT22;26723;57.478;12.066;2023-04-03T17:29:02;5.80;99.90
40996;DHT22;26723;57.478;12.066;2023-04-03T17:32:12;5.70;99.90
40996;DHT22;26723;57.478;12.066;2023-04-03T17:35:21;5.50;99.90
40996;DHT22;26723;57.478;12.066;2023-04-03T17:38:30;5.50;99.90
40996;DHT22;26723;57.478;12.066;2023-04-03T17:41:39;5.50;99.90
40996;DHT22;26723;57.478;12.066;2023-04-03T17:44:48;5.40;99.90
40996;DHT22;26723;57.478;12.066;2023-04-03T17:47:57;5.40;99.90
40996;DHT22;26723;57.478;12.066;2023-04-03T17:51:08;5.20;99.90
40996;DHT22;26723;57.478;12.066;2023-04-03T17:54:16;5.20;99.90
40996;DHT22;26723;57.478;12.066;2023-04-03T17:57:25;5.20;99.90
40996;DHT22;26723;57.478;12.066;2023-04-03T18:00:33;5.10;99.90
40996;DHT22;26723;57.478;12.066;2023-04-03T18:03:44;5.00;99.90
40996;DHT22;26723;57.478;12.066;2023-04-03T18:06:54;5.10;99.90
40996;DHT22;26723;57.478;12.066;2023-04-03T18:10:03;5.00;99.90
40996;DHT22;26723;57.478;12.066;2023-04-03T18:13:12;5.00;99.90
40996;DHT22;26723;57.478;12.066;2023-04-03T18:16:22;4.90;99.90
40996;DHT22;26723;57.478;12.066;2023-04-03T18:19:32;4.80;99.90
40996;DHT22;26723;57.478;12.066;2023-04-03T18:22:41;4.70;99.90
40996;DHT22;26723;57.478;12.066;2023-04-03T18:25:49;4.70;99.90
40996;DHT22;26723;57.478;12.066;2023-04-03T18:29:00;4.60;99.90
40996;DHT22;26723;57.478;12.066;2023-04-03T18:32:12;4.60;99.90
40996;DHT22;26723;57.478;12.066;2023-04-03T18:35:22;4.50;99.90
40996;DHT22;26723;57.478;12.066;2023-04-03T18:38:31;4.40;99.90
40996;DHT22;26723;57.478;12.066;2023-04-03T18:41:39;4.40;99.90
40996;DHT22;26723;57.478;12.066;2023-04-03T18:44:51;4.30;99.90
40996;DHT22;26723;57.478;12.066;2023-04-03T18:48:00;4.30;99.90
40996;DHT22;26723;57.478;12.066;2023-04-03T18:51:10;4.20;99.90
40996;DHT22;26723;57.478;12.066;2023-04-03T18:54:19;4.20;99.90
40996;DHT22;26723;57.478;12.066;2023-04-03T18:57:27;4.10;99.90
40996;DHT22;26723;57.478;12.066;2023-04-03T19:00:37;4.00;99.90
40996;DHT22;26723;57.478;12.066;2023-04-03T19:03:46;4.00;99.90
40996;DHT22;26723;57.478;12.066;2023-04-03T19:06:56;3.80;99.90
40996;DHT22;26723;57.478;12.066;2023-04-03T19:10:05;3.70;99.90
40996;DHT22;26723;57.478;12.066;2023-04-03T19:13:14;3.80;99.90
40996;DHT22;26723;57.478;12.066;2023-04-03T19:16:23;3.80;99.90
40996;DHT22;26723;57.478;12.066;2023-04-03T19:19:31;3.80;99.90
40996;DHT22;26723;57.478;12.066;2023-04-03T19:22:41;3.80;99.90
40996;DHT22;26723;57.478;12.066;2023-04-03T19:25:57;3.70;99.90
40996;DHT22;26723;57.478;12.066;2023-04-03T19:29:06;3.60;99.90
40996;DHT22;26723;57.478;12.066;2023-04-03T19:32:15;3.50;99.90
40996;DHT22;26723;57.478;12.066;2023-04-03T19:35:23;3.50;99.90
40996;DHT22;26723;57.478;12.066;2023-04-03T19:38:34;3.40;99.90
40996;DHT22;26723;57.478;12.066;2023-04-03T19:41:43;3.30;99.90
40996;DHT22;26723;57.478;12.066;2023-04-03T19:44:52;3.30;99.90
40996;DHT22;26723;57.478;12.066;2023-04-03T19:48:00;3.20;99.90
40996;DHT22;26723;57.478;12.066;2023-04-03T19:51:09;3.00;99.90
40996;DHT22;26723;57.478;12.066;2023-04-03T19:54:19;3.00;99.90
40996;DHT22;26723;57.478;12.066;2023-04-03T19:57:27;3.10;99.90